createdAt,value
2023-02-12T00:02:14.871Z,25.25
2023-02-12T00:04:41.386Z,22.38
2023-02-12T00:07:07.594Z,23.65
2023-02-12T00:09:33.924Z,23.13
2023-02-12T00:12:00.140Z,23.90
2023-02-12T00:14:26.365Z,23.48
2023-02-12T00:16:52.557Z,24.33
2023-02-12T00:19:18.830Z,23.92
2023-02-12T00:21:45.135Z,24.35
2023-02-12T00:24:11.380Z,24.75
2023-02-12T00:26:37.628Z,24.98
2023-02-12T00:29:03.902Z,24.17
2023-02-12T00:31:31.350Z,23.95
2023-02-12T00:33:58.185Z,24.08
2023-02-12T00:36:25.433Z,24.10
2023-02-12T00:38:53.170Z,24.30
2023-02-12T00:41:19.593Z,23.67
2023-02-12T00:43:45.841Z,23.63
2023-02-12T00:46:12.127Z,25.42
2023-02-12T00:48:38.517Z,22.35
2023-02-12T00:51:04.926Z,21.77
2023-02-12T00:53:31.472Z,24.58
2023-02-12T00:55:58.166Z,22.10
2023-02-12T00:58:24.546Z,22.73
2023-02-12T01:00:50.798Z,23.38
2023-02-12T01:03:17.400Z,26.33
2023-02-12T01:05:43.961Z,22.40
2023-02-12T01:08:14.014Z,21.35
2023-02-12T01:10:40.530Z,22.25
2023-02-12T01:13:07.033Z,20.08
2023-02-12T01:15:33.304Z,20.30
2023-02-12T01:17:59.565Z,21.98
2023-02-12T01:20:25.796Z,21.92
2023-02-12T01:22:52.141Z,21.08
2023-02-12T01:25:20.508Z,23.38
2023-02-12T01:27:47.038Z,21.50
2023-02-12T01:30:13.507Z,21.80
2023-02-12T01:32:39.929Z,24.20
2023-02-12T01:35:07.883Z,22.73
2023-02-12T01:37:35.413Z,23.85
2023-02-12T01:40:01.704Z,22.27
2023-02-12T01:42:27.939Z,21.48
2023-02-12T01:45:12.619Z,24.13
2023-02-12T01:47:39.416Z,24.63
2023-02-12T01:50:10.975Z,24.55
2023-02-12T01:52:38.414Z,22.83
2023-02-12T01:55:06.718Z,24.33
2023-02-12T01:57:33.978Z,22.55
2023-02-12T02:00:01.649Z,21.60
2023-02-12T02:02:28.352Z,23.80
2023-02-12T02:04:57.274Z,23.58
2023-02-12T02:07:23.897Z,23.33
2023-02-12T02:09:50.384Z,23.70
2023-02-12T02:12:35.429Z,24.42
2023-02-12T02:15:02.749Z,21.58
2023-02-12T02:17:34.805Z,21.30
2023-02-12T02:20:13.190Z,20.95
2023-02-12T02:22:48.497Z,21.27
2023-02-12T02:25:19.181Z,21.77
2023-02-12T02:28:00.424Z,22.58
2023-02-12T02:30:34.730Z,22.10
2023-02-12T02:33:13.740Z,21.98
2023-02-12T02:35:45.507Z,20.75
2023-02-12T02:38:18.247Z,23.10
2023-02-12T02:40:54.749Z,21.90
2023-02-12T02:43:39.888Z,20.67
2023-02-12T02:46:11.704Z,20.20
2023-02-12T02:48:40.718Z,21.00
2023-02-12T02:51:19.711Z,20.70
2023-02-12T02:53:48.765Z,21.55
2023-02-12T02:56:17.734Z,21.52
2023-02-12T02:58:56.853Z,21.33
2023-02-12T03:01:25.585Z,21.00
2023-02-12T03:03:55.227Z,20.63
2023-02-12T03:06:28.661Z,21.60
2023-02-12T03:08:59.795Z,48.40
2023-02-12T03:11:30.441Z,37.28
2023-02-12T03:13:59.763Z,23.17
2023-02-12T03:16:28.384Z,22.15
2023-02-12T03:18:56.702Z,23.50
2023-02-12T03:21:28.738Z,21.92
2023-02-12T03:24:02.125Z,21.13
2023-02-12T03:26:37.506Z,22.27
2023-02-12T03:29:03.879Z,22.70
2023-02-12T03:32:02.557Z,22.33
2023-02-12T03:36:58.269Z,20.48
2023-02-12T03:39:33.144Z,21.88
2023-02-12T03:42:06.618Z,22.08
2023-02-12T03:44:51.606Z,22.85
2023-02-12T03:47:27.807Z,21.20
2023-02-12T03:50:01.022Z,22.63
2023-02-12T03:52:28.288Z,32.30
2023-02-12T03:54:54.513Z,24.38
2023-02-12T03:57:22.456Z,25.40
2023-02-12T03:59:49.078Z,21.48
2023-02-12T04:02:16.351Z,22.60
2023-02-12T04:04:43.770Z,21.73
2023-02-12T04:07:10.334Z,22.73
2023-02-12T04:09:36.626Z,22.95
2023-02-12T04:12:02.811Z,24.88
2023-02-12T04:14:28.994Z,24.15
2023-02-12T04:17:02.883Z,22.98
2023-02-12T04:19:35.518Z,25.52
2023-02-12T04:22:01.702Z,23.67
2023-02-12T04:24:33.450Z,21.98
2023-02-12T04:27:12.522Z,23.75
2023-02-12T04:29:41.791Z,22.00
2023-02-12T04:32:12.534Z,23.25
2023-02-12T04:34:41.823Z,21.92
2023-02-12T04:37:13.631Z,22.38
2023-02-12T04:39:41.211Z,22.20
2023-02-12T04:42:07.608Z,21.70
2023-02-12T04:44:35.240Z,24.02
2023-02-12T04:47:01.505Z,22.45
2023-02-12T04:49:27.798Z,23.35
2023-02-12T04:51:54.306Z,22.15
2023-02-12T04:54:21.666Z,22.10
2023-02-12T04:56:48.067Z,21.27
2023-02-12T04:59:14.323Z,20.10
2023-02-12T05:01:41.460Z,22.75
2023-02-12T05:04:08.433Z,20.70
2023-02-12T05:09:00.821Z,20.33
2023-02-12T05:11:27.042Z,21.42
2023-02-12T05:13:53.649Z,22.20
2023-02-12T05:16:20.531Z,22.45
2023-02-12T05:21:13.169Z,20.65
2023-02-12T05:23:39.933Z,20.05
2023-02-12T05:26:08.032Z,21.30
2023-02-12T05:28:34.494Z,22.77
2023-02-12T05:31:01.715Z,22.70
2023-02-12T05:33:28.002Z,22.13
2023-02-12T05:35:55.592Z,23.52
2023-02-12T05:38:22.134Z,23.08
2023-02-12T05:40:48.344Z,23.85
2023-02-12T05:43:14.607Z,23.30
2023-02-12T05:45:43.004Z,26.50
2023-02-12T05:48:09.258Z,28.42
2023-02-12T05:50:36.323Z,29.98
2023-02-12T05:53:02.540Z,30.20
2023-02-12T05:55:28.865Z,29.98
2023-02-12T05:57:55.090Z,25.08
2023-02-12T06:00:21.651Z,27.27
2023-02-12T06:02:47.926Z,25.08
2023-02-12T06:05:14.267Z,25.52
2023-02-12T06:07:40.483Z,25.45
2023-02-12T06:10:07.036Z,24.80
2023-02-12T06:12:33.242Z,24.63
2023-02-12T06:14:59.455Z,55.92
2023-02-12T06:17:25.711Z,53.58
2023-02-12T06:19:51.933Z,33.88
2023-02-12T06:22:18.166Z,31.90
2023-02-12T06:24:44.379Z,28.60
2023-02-12T06:27:10.591Z,28.75
2023-02-12T06:29:36.857Z,27.67
2023-02-12T06:32:03.288Z,47.30
2023-02-12T06:34:29.670Z,30.80
2023-02-12T06:36:55.929Z,33.72
2023-02-12T06:39:22.168Z,27.63
2023-02-12T06:41:48.444Z,26.33
2023-02-12T06:44:14.712Z,23.45
2023-02-12T06:46:41.020Z,25.30
2023-02-12T06:49:07.343Z,25.58
2023-02-12T06:51:33.597Z,24.70
2023-02-12T06:53:59.851Z,26.02
2023-02-12T06:56:26.618Z,25.73
2023-02-12T06:58:59.475Z,26.02
2023-02-12T07:01:27.021Z,24.13
2023-02-12T07:03:54.653Z,23.55
2023-02-12T07:06:21.372Z,24.27
2023-02-12T07:08:47.738Z,23.13
2023-02-12T07:11:13.953Z,25.95
2023-02-12T07:13:40.900Z,22.75
2023-02-12T07:18:34.340Z,23.65
2023-02-12T07:21:00.583Z,25.55
2023-02-12T07:23:26.803Z,25.02
2023-02-12T07:25:59.627Z,25.38
2023-02-12T07:28:26.739Z,25.05
2023-02-12T07:30:53.069Z,23.67
2023-02-12T07:33:19.726Z,24.45
2023-02-12T07:35:46.230Z,24.77
2023-02-12T07:38:12.509Z,26.23
2023-02-12T07:40:38.891Z,25.50
2023-02-12T07:43:05.104Z,26.40
2023-02-12T07:45:31.378Z,26.13
2023-02-12T07:47:57.585Z,25.92
2023-02-12T07:50:23.814Z,24.65
2023-02-12T07:52:50.361Z,24.73
2023-02-12T07:55:16.741Z,25.48
2023-02-12T07:57:42.960Z,26.60
2023-02-12T08:00:09.560Z,26.95
2023-02-12T08:02:35.959Z,26.17
2023-02-12T08:05:02.237Z,28.48
2023-02-12T08:07:29.156Z,27.15
2023-02-12T08:12:21.520Z,26.02
2023-02-12T08:14:47.748Z,26.70
2023-02-12T08:17:13.959Z,26.73
2023-02-12T08:19:40.230Z,26.27
2023-02-12T08:22:07.352Z,23.90
2023-02-12T08:24:33.691Z,25.40
2023-02-12T08:26:59.990Z,26.17
2023-02-12T08:29:28.383Z,24.52
2023-02-12T08:31:55.912Z,25.58
2023-02-12T08:34:23.393Z,25.25
2023-02-12T08:36:50.659Z,27.42
2023-02-12T08:39:17.819Z,26.10
2023-02-12T08:41:44.202Z,28.85
2023-02-12T08:44:18.198Z,33.63
2023-02-12T08:46:46.701Z,35.65
2023-02-12T08:49:17.834Z,39.90
2023-02-12T08:51:45.351Z,30.20
2023-02-12T08:54:13.236Z,29.10
2023-02-12T08:56:39.803Z,30.75
2023-02-12T08:59:06.992Z,30.75
2023-02-12T09:01:34.795Z,30.08
2023-02-12T09:04:01.339Z,29.60
2023-02-12T09:06:27.768Z,32.90
2023-02-12T09:08:54.549Z,32.40
2023-02-12T09:11:24.343Z,31.77
2023-02-12T09:13:50.964Z,33.63
2023-02-12T09:16:17.201Z,32.92
2023-02-12T09:18:43.549Z,32.17
2023-02-12T09:21:11.838Z,30.75
2023-02-12T09:23:38.291Z,30.92
2023-02-12T09:26:05.616Z,31.23
2023-02-12T09:28:32.349Z,29.40
2023-02-12T09:30:58.805Z,28.85
2023-02-12T09:33:25.083Z,30.63
2023-02-12T09:35:51.612Z,31.60
2023-02-12T09:38:17.836Z,30.20
2023-02-12T09:40:53.126Z,30.38
2023-02-12T09:43:31.686Z,30.75
2023-02-12T09:45:58.176Z,29.42
2023-02-12T09:48:35.092Z,28.63
2023-02-12T09:51:03.653Z,29.70
2023-02-12T09:53:30.869Z,29.75
2023-02-12T09:55:57.485Z,30.20
2023-02-12T09:58:30.117Z,29.25
2023-02-12T10:00:56.541Z,29.65
2023-02-12T10:03:23.109Z,29.77
2023-02-12T10:05:51.673Z,26.98
2023-02-12T10:08:33.009Z,30.02
2023-02-12T10:11:14.318Z,30.30
2023-02-12T10:13:58.978Z,29.58
2023-02-12T10:16:38.341Z,28.67
2023-02-12T10:19:23.871Z,28.55
2023-02-12T10:22:00.167Z,30.15
2023-02-12T10:24:31.672Z,29.20
2023-02-12T10:26:59.638Z,28.08
2023-02-12T10:29:28.678Z,31.30
2023-02-12T10:32:07.117Z,31.35
2023-02-12T10:34:34.526Z,30.30
2023-02-12T10:37:17.741Z,29.15
2023-02-12T10:39:48.772Z,29.42
2023-02-12T10:42:18.386Z,29.10
2023-02-12T10:44:44.661Z,29.92
2023-02-12T10:47:17.630Z,28.70
2023-02-12T10:49:43.928Z,29.30
2023-02-12T10:52:25.583Z,35.45
2023-02-12T10:54:51.785Z,28.73
2023-02-12T10:57:20.762Z,28.77
2023-02-12T10:59:47.649Z,28.27
2023-02-12T11:04:40.233Z,28.20
2023-02-12T11:07:07.904Z,29.98
2023-02-12T11:09:36.068Z,27.85
2023-02-12T11:12:03.387Z,28.08
2023-02-12T11:14:30.651Z,28.13
2023-02-12T11:16:57.876Z,28.27
2023-02-12T11:19:25.605Z,27.38
2023-02-12T11:21:52.478Z,26.75
2023-02-12T11:26:44.840Z,26.95
2023-02-12T11:29:19.065Z,25.10
2023-02-12T11:31:59.695Z,27.45
2023-02-12T11:34:26.444Z,27.63
2023-02-12T11:36:53.641Z,26.88
2023-02-12T11:39:24.765Z,24.67
2023-02-12T11:41:55.307Z,25.33
2023-02-12T11:44:35.956Z,25.40
2023-02-12T11:47:08.750Z,25.35
2023-02-12T11:49:39.112Z,24.73
2023-02-12T11:52:06.313Z,23.30
2023-02-12T11:54:40.492Z,24.00
2023-02-12T11:57:06.782Z,24.30
2023-02-12T11:59:37.096Z,25.15
2023-02-12T12:02:06.402Z,20.75
2023-02-12T12:04:33.828Z,22.08
2023-02-12T12:07:02.684Z,20.80
2023-02-12T12:09:39.508Z,20.55
2023-02-12T12:12:21.353Z,19.88
2023-02-12T12:15:33.924Z,19.15
2023-02-12T12:18:30.876Z,13.90
2023-02-12T12:21:01.588Z,9.23
2023-02-12T12:23:36.918Z,3.40
2023-02-12T12:26:07.058Z,4.53
2023-02-12T12:28:40.797Z,4.28
2023-02-12T12:31:10.335Z,3.90
2023-02-12T12:33:48.767Z,4.35
2023-02-12T12:36:30.671Z,4.65
2023-02-12T12:39:09.301Z,4.72
2023-02-12T12:41:41.705Z,4.07
2023-02-12T12:44:22.937Z,5.20
2023-02-12T12:46:52.188Z,5.43
2023-02-12T12:49:30.514Z,7.53
2023-02-12T12:52:16.614Z,6.03
2023-02-12T12:54:54.926Z,8.07
2023-02-12T12:57:21.133Z,8.20
2023-02-12T12:59:56.498Z,9.65
2023-02-12T13:02:28.884Z,9.15
2023-02-12T13:05:17.952Z,8.63
2023-02-12T13:07:54.401Z,8.43
2023-02-12T13:10:23.708Z,9.48
2023-02-12T13:12:57.576Z,7.95
2023-02-12T13:15:41.108Z,8.50
2023-02-12T13:18:28.190Z,9.48
2023-02-12T13:20:57.168Z,6.95
2023-02-12T13:23:28.202Z,8.00
2023-02-12T13:25:54.839Z,8.43
2023-02-12T13:28:29.408Z,9.45
2023-02-12T13:30:56.305Z,8.63
2023-02-12T13:35:51.709Z,7.72
2023-02-12T13:38:27.144Z,9.68
2023-02-12T13:40:56.595Z,7.82
2023-02-12T13:43:41.364Z,7.18
2023-02-12T13:46:07.551Z,7.35
2023-02-12T13:48:36.895Z,8.27
2023-02-12T13:51:09.238Z,7.32
2023-02-12T13:53:47.263Z,7.32
2023-02-12T13:56:29.304Z,7.18
2023-02-12T13:59:00.752Z,9.13
2023-02-12T14:01:38.086Z,13.20
2023-02-12T14:04:23.393Z,9.13
2023-02-12T14:06:54.202Z,7.65
2023-02-12T14:09:23.774Z,13.23
2023-02-12T14:11:51.156Z,10.50
2023-02-12T14:14:26.044Z,7.72
2023-02-12T14:16:52.262Z,7.22
2023-02-12T14:19:37.116Z,6.72
2023-02-12T14:22:09.955Z,6.75
2023-02-12T14:24:36.143Z,6.32
2023-02-12T14:27:06.677Z,9.38
2023-02-12T14:29:32.891Z,8.35
2023-02-12T14:31:59.200Z,6.88
2023-02-12T14:34:31.636Z,8.23
2023-02-12T14:37:11.648Z,7.68
2023-02-12T14:39:37.877Z,7.93
2023-02-12T14:42:10.226Z,6.82
2023-02-12T14:44:36.432Z,6.93
2023-02-12T14:47:06.668Z,6.90
2023-02-12T14:49:36.601Z,6.75
2023-02-12T14:52:05.072Z,6.95
2023-02-12T14:54:36.624Z,7.57
2023-02-12T14:57:06.266Z,7.43
2023-02-12T14:59:36.823Z,7.40
2023-02-12T15:02:04.100Z,7.35
2023-02-12T15:04:32.629Z,6.88
2023-02-12T15:06:58.865Z,8.55
2023-02-12T15:09:38.855Z,6.78
2023-02-12T15:12:07.576Z,7.78
2023-02-12T15:14:39.291Z,6.90
2023-02-12T15:17:22.138Z,7.13
2023-02-12T15:19:50.633Z,7.90
2023-02-12T15:22:55.467Z,7.57
2023-02-12T15:25:25.943Z,7.28
2023-02-12T15:27:55.238Z,9.15
2023-02-12T15:30:26.963Z,8.10
2023-02-12T15:32:55.252Z,9.85
2023-02-12T15:35:29.024Z,11.88
2023-02-12T15:37:55.956Z,10.77
2023-02-12T15:42:59.179Z,8.30
2023-02-12T15:45:26.846Z,7.57
2023-02-12T15:47:59.272Z,8.73
2023-02-12T15:50:25.762Z,7.63
2023-02-12T15:52:52.856Z,7.55
2023-02-12T15:55:22.358Z,7.95
2023-02-12T15:57:49.616Z,10.27
2023-02-12T16:00:24.653Z,13.85
2023-02-12T16:02:54.038Z,10.63
2023-02-12T16:05:21.110Z,11.63
2023-02-12T16:07:47.661Z,10.02
2023-02-12T16:10:15.066Z,9.23
2023-02-12T16:12:41.629Z,10.07
2023-02-12T16:15:22.950Z,11.95
2023-02-12T16:17:49.214Z,14.63
2023-02-12T16:20:15.416Z,9.40
2023-02-12T16:22:42.752Z,10.77
2023-02-12T16:25:15.364Z,9.40
2023-02-12T16:27:48.609Z,9.95
2023-02-12T16:30:31.390Z,10.15
2023-02-12T16:32:57.977Z,8.90
2023-02-12T16:35:33.758Z,10.35
2023-02-12T16:38:01.988Z,9.88
2023-02-12T16:40:30.003Z,8.60
2023-02-12T16:42:57.377Z,9.73
2023-02-12T16:45:26.842Z,12.05
2023-02-12T16:48:04.047Z,24.17
2023-02-12T16:50:30.971Z,11.45
2023-02-12T16:55:23.325Z,10.13
2023-02-12T16:57:49.560Z,10.75
2023-02-12T17:00:16.416Z,12.05
2023-02-12T17:05:10.132Z,16.05
2023-02-12T17:07:36.468Z,30.17
2023-02-12T17:10:02.780Z,30.13
2023-02-12T17:12:29.001Z,34.58
2023-02-12T17:14:55.925Z,20.10
2023-02-12T17:19:48.442Z,19.83
2023-02-12T17:22:17.532Z,32.63
2023-02-12T17:24:43.769Z,24.25
2023-02-12T17:27:11.545Z,36.55
2023-02-12T17:29:37.765Z,38.05
2023-02-12T17:32:04.078Z,24.77
2023-02-12T17:34:39.685Z,21.35
2023-02-12T17:37:13.544Z,28.92
2023-02-12T17:39:39.800Z,21.65
2023-02-12T17:42:06.469Z,19.17
2023-02-12T17:44:32.664Z,17.95
2023-02-12T17:46:58.980Z,19.63
2023-02-12T17:49:25.188Z,18.88
2023-02-12T17:51:51.426Z,18.30
2023-02-12T17:54:18.629Z,19.55
2023-02-12T17:56:44.824Z,19.17
2023-02-12T17:59:11.098Z,20.52
2023-02-12T18:01:37.448Z,23.00
2023-02-12T18:04:03.714Z,25.02
2023-02-12T18:06:30.829Z,23.35
2023-02-12T18:08:57.743Z,23.67
2023-02-12T18:13:53.747Z,25.25
2023-02-12T18:16:20.449Z,25.30
2023-02-12T18:18:46.702Z,23.80
2023-02-12T18:21:14.328Z,26.75
2023-02-12T18:23:40.776Z,27.92
2023-02-12T18:26:14.938Z,24.90
2023-02-12T18:28:41.448Z,24.27
2023-02-12T18:31:08.432Z,24.50
2023-02-12T18:36:02.462Z,24.48
2023-02-12T18:38:28.904Z,25.15
2023-02-12T18:40:55.614Z,25.42
2023-02-12T18:45:50.181Z,23.08
2023-02-12T18:48:16.421Z,27.90
2023-02-12T18:50:42.687Z,24.58
2023-02-12T18:53:09.108Z,24.63
2023-02-12T18:55:37.037Z,25.63
2023-02-12T18:58:03.277Z,25.60
2023-02-12T19:00:29.507Z,30.38
2023-02-12T19:02:55.867Z,35.20
2023-02-12T19:05:22.162Z,35.65
2023-02-12T19:07:48.480Z,37.95
2023-02-12T19:10:14.693Z,27.02
2023-02-12T19:12:40.915Z,24.85
2023-02-12T19:15:08.656Z,27.52
2023-02-12T19:17:36.280Z,26.33
2023-02-12T19:20:02.570Z,25.75
2023-02-12T19:22:28.981Z,28.10
2023-02-12T19:24:55.259Z,28.60
2023-02-12T19:27:21.490Z,28.45
2023-02-12T19:29:47.761Z,31.80
2023-02-12T19:32:14.119Z,29.98
2023-02-12T19:34:40.425Z,31.58
2023-02-12T19:37:07.851Z,30.08
2023-02-12T19:39:34.133Z,30.92
2023-02-12T19:42:00.341Z,28.30
2023-02-12T19:44:26.677Z,27.58
2023-02-12T19:46:53.196Z,27.70
2023-02-12T19:49:23.592Z,27.88
2023-02-12T19:51:49.846Z,28.30
2023-02-12T19:54:16.759Z,31.15
2023-02-12T19:59:10.896Z,28.00
2023-02-12T20:01:37.229Z,28.10
2023-02-12T20:04:03.630Z,29.40
2023-02-12T20:06:31.720Z,30.33
2023-02-12T20:08:58.165Z,29.10
2023-02-12T20:11:25.937Z,30.83
2023-02-12T20:13:52.215Z,36.35
2023-02-12T20:16:19.966Z,33.83
2023-02-12T20:18:48.725Z,31.85
2023-02-12T20:21:16.705Z,36.05
2023-02-12T20:23:43.106Z,30.75
2023-02-12T20:26:10.418Z,34.05
2023-02-12T20:28:37.707Z,35.70
2023-02-12T20:31:08.337Z,31.33
2023-02-12T20:33:34.581Z,30.65
2023-02-12T20:36:00.768Z,31.35
2023-02-12T20:38:27.045Z,35.53
2023-02-12T20:40:53.342Z,35.10
2023-02-12T20:43:19.569Z,33.90
2023-02-12T20:45:45.826Z,36.35
2023-02-12T20:48:12.070Z,39.35
2023-02-12T20:50:38.320Z,40.80
2023-02-12T20:53:05.914Z,39.85
2023-02-12T20:55:33.376Z,38.17
2023-02-12T20:57:59.726Z,39.20
2023-02-12T21:00:25.963Z,38.72
2023-02-12T21:02:54.449Z,37.08
2023-02-12T21:05:20.961Z,33.22
2023-02-12T21:07:47.858Z,37.28
2023-02-12T21:12:40.205Z,33.75
2023-02-12T21:15:06.538Z,33.08
2023-02-12T21:17:33.295Z,30.42
2023-02-12T21:20:00.884Z,30.45
2023-02-12T21:22:27.124Z,33.53
2023-02-12T21:24:53.349Z,30.23
2023-02-12T21:27:19.628Z,31.83
2023-02-12T21:29:45.875Z,30.88
2023-02-12T21:32:12.198Z,32.90
2023-02-12T21:34:38.518Z,31.80
2023-02-12T21:37:04.731Z,28.33
2023-02-12T21:39:31.039Z,28.17
2023-02-12T21:41:58.504Z,28.30
2023-02-12T21:44:25.184Z,25.17
2023-02-12T21:46:51.839Z,27.00
2023-02-12T21:49:24.691Z,30.95
2023-02-12T21:51:52.445Z,31.38
2023-02-12T21:54:19.315Z,29.48
2023-02-12T21:59:11.972Z,27.98
2023-02-12T22:01:41.186Z,28.38
2023-02-12T22:04:07.626Z,24.52
2023-02-12T22:06:37.046Z,23.23
2023-02-12T22:09:06.378Z,25.60
2023-02-12T22:11:32.627Z,26.45
2023-02-12T22:13:58.855Z,23.80
2023-02-12T22:16:26.324Z,27.85
2023-02-12T22:18:55.286Z,23.63
2023-02-12T22:21:22.564Z,22.35
2023-02-12T22:23:48.822Z,21.02
2023-02-12T22:26:16.504Z,22.23
2023-02-12T22:28:47.569Z,23.55
2023-02-12T22:31:15.029Z,22.63
2023-02-12T22:33:41.308Z,23.92
2023-02-12T22:36:08.666Z,24.35
2023-02-12T22:38:35.620Z,24.00
2023-02-12T22:41:02.236Z,25.10
2023-02-12T22:43:32.055Z,24.33
2023-02-12T22:45:58.827Z,26.50
2023-02-12T22:50:51.437Z,23.85
2023-02-12T22:53:17.968Z,24.27
2023-02-12T22:55:44.181Z,23.25
2023-02-12T22:58:10.963Z,23.67
2023-02-12T23:00:37.578Z,23.38
2023-02-12T23:03:03.934Z,23.67
2023-02-12T23:05:30.164Z,25.20
2023-02-12T23:07:56.399Z,22.50
2023-02-12T23:10:22.890Z,23.73
2023-02-12T23:12:49.142Z,23.42
2023-02-12T23:15:15.418Z,24.30
2023-02-12T23:17:41.658Z,24.00
2023-02-12T23:20:08.113Z,26.45
2023-02-12T23:22:35.263Z,25.50
2023-02-12T23:25:01.512Z,24.38
2023-02-12T23:27:27.750Z,25.95
2023-02-12T23:29:53.985Z,27.10
2023-02-12T23:32:20.214Z,26.48
2023-02-12T23:34:46.446Z,25.45
2023-02-12T23:37:12.715Z,27.25
2023-02-12T23:39:39.122Z,30.48
2023-02-12T23:42:05.441Z,24.60
2023-02-12T23:44:31.866Z,26.63
2023-02-12T23:46:58.143Z,25.40
2023-02-12T23:49:24.406Z,27.90
2023-02-12T23:51:50.723Z,27.70
2023-02-12T23:54:16.974Z,29.20
2023-02-12T23:56:43.211Z,26.42
2023-02-12T23:59:09.509Z,26.77
